This is the latest recevied weather packets stored in our database for station/object N8JE. If no packets are shown the sender has not sent any weather packets the latest 10 day(s).
| Time | Temp. | Humidity | Pressure | Rain* | Wind** | Luminosity | Snow |
|---|---|---|---|---|---|---|---|
| 1777021205 | 13.33° C | 77% | 1009.6 hPa | 0 mm | - | - | - |
| 1777017604 | 15° C | 70% | 1009.6 hPa | 0 mm | - | - | - |
| 1777016705 | 15° C | 70% | 1009.6 hPa | 0 mm | - | - | - |
| 1777009205 | 17.22° C | 63% | 1010.3 hPa | 0 mm | - | - | - |
| 1777008004 | 16.67° C | 65% | 1010.3 hPa | 0 mm | - | - | - |
| 1777007704 | 16.67° C | 65% | 1010.2 hPa | 0 mm | - | - | - |
| 1777005004 | 16.67° C | 64% | 1010 hPa | 0 mm | - | - | - |
| 1777000204 | 18.33° C | 58% | 1010.5 hPa | 0 mm | - | - | - |
| 1776996604 | 19.44° C | 55% | 1010.7 hPa | 0 mm | - | - | - |
| 1776995704 | 20° C | 54% | 1010.6 hPa | 0 mm | - | - | - |
| 1776995404 | 20.56° C | 53% | 1010.6 hPa | 0 mm | - | - | - |
| 1776994204 | 21.11° C | 51% | 1010.6 hPa | 0 mm | - | - | - |
| 1776990304 | 23.89° C | 43% | 1010.5 hPa | 0 mm | - | - | - |
| 1776988504 | 25° C | 42% | 1010.7 hPa | 0 mm | - | - | - |
| 1776986704 | 25.56° C | 40% | 1010.7 hPa | 0 mm | - | - | - |
| 1776986104 | 26.11° C | 39% | 1010.7 hPa | 0 mm | - | - | - |
| 1776984306 | 26.67° C | 38% | 1010.9 hPa | 0 mm | - | - | - |
| 1776982805 | 27.22° C | 37% | 1010.9 hPa | 0 mm | - | - | - |
| 1776981005 | 27.22° C | 37% | 1011 hPa | 0 mm | - | - | - |
| 1776980105 | 28.33° C | 37% | 1011 hPa | 0 mm | - | - | - |
| 1776978905 | 27.78° C | 38% | 1011.1 hPa | 0 mm | - | - | - |
| 1776977404 | 27.22° C | 39% | 1011.4 hPa | 0 mm | - | - | - |
| 1776975605 | 27.22° C | 43% | 1011.7 hPa | 0 mm | - | - | - |
| 1776975305 | 27.22° C | 45% | 1011.7 hPa | 0 mm | - | - | - |
| 1776975005 | 27.22° C | 42% | 1011.8 hPa | 0 mm | - | - | - |
* Rain latest hour (hover to see other rain measurements)
** Current wind speed in m/s (hover to see current wind gust speed)